createdAt,value
2018-02-23T00:00:34.345Z,14.93
2018-02-23T00:03:01.556Z,10.40
2018-02-23T00:05:29.024Z,16.67
2018-02-23T00:07:56.142Z,14.10
2018-02-23T00:12:56.458Z,14.00
2018-02-23T00:15:23.588Z,23.13
2018-02-23T00:17:50.351Z,16.23
2018-02-23T00:20:18.058Z,17.20
2018-02-23T00:22:45.625Z,13.60
2018-02-23T00:25:14.244Z,13.10
2018-02-23T00:27:41.184Z,16.37
2018-02-23T00:30:09.419Z,15.20
2018-02-23T00:32:36.588Z,11.40
2018-02-23T00:35:04.935Z,14.40
2018-02-23T00:37:33.083Z,16.03
2018-02-23T00:39:59.941Z,12.70
2018-02-23T00:42:27.863Z,13.33
2018-02-23T00:44:55.953Z,12.73
2018-02-23T00:47:23.428Z,13.40
2018-02-23T00:49:50.649Z,13.40
2018-02-23T00:52:17.756Z,14.33
2018-02-23T00:54:44.358Z,11.87
2018-02-23T00:57:11.160Z,13.27
2018-02-23T00:59:37.877Z,14.00
2018-02-23T01:02:04.624Z,16.23
2018-02-23T01:04:31.427Z,11.40
2018-02-23T01:06:58.593Z,14.63
2018-02-23T01:09:25.771Z,17.90
2018-02-23T01:11:53.367Z,10.37
2018-02-23T01:14:20.257Z,19.13
2018-02-23T01:16:46.967Z,11.93
2018-02-23T01:19:14.343Z,12.53
2018-02-23T01:21:40.797Z,11.20
2018-02-23T01:24:08.583Z,12.40
2018-02-23T01:26:34.965Z,19.27
2018-02-23T01:29:02.637Z,14.03
2018-02-23T01:31:29.607Z,16.70
2018-02-23T01:33:56.748Z,12.43
2018-02-23T01:36:26.912Z,11.90
2018-02-23T01:38:54.538Z,13.40
2018-02-23T01:41:21.421Z,14.17
2018-02-23T01:43:49.088Z,11.03
2018-02-23T01:46:15.946Z,8.00
2018-02-23T01:48:43.597Z,8.77
2018-02-23T01:51:11.145Z,11.60
2018-02-23T01:53:38.544Z,11.23
2018-02-23T01:56:05.708Z,11.90
2018-02-23T01:58:32.972Z,9.80
2018-02-23T02:00:59.768Z,14.27
2018-02-23T02:03:27.090Z,13.07
2018-02-23T02:05:54.622Z,10.50
2018-02-23T02:08:22.772Z,12.87
2018-02-23T02:10:49.503Z,13.37
2018-02-23T02:13:15.873Z,12.87
2018-02-23T02:15:42.585Z,9.60
2018-02-23T02:18:10.407Z,6.60
2018-02-23T02:20:52.460Z,13.57
2018-02-23T02:23:19.584Z,8.93
2018-02-23T02:25:46.329Z,14.17
2018-02-23T02:28:13.814Z,10.10
2018-02-23T02:30:40.347Z,11.13
2018-02-23T02:33:08.241Z,12.13
2018-02-23T02:35:36.829Z,12.53
2018-02-23T02:38:05.025Z,10.83
2018-02-23T02:40:33.080Z,10.47
2018-02-23T02:43:00.717Z,11.93
2018-02-23T02:45:27.197Z,10.07
2018-02-23T02:47:54.725Z,10.47
2018-02-23T02:50:22.960Z,11.43
2018-02-23T02:52:50.021Z,13.50
2018-02-23T02:55:17.127Z,14.53
2018-02-23T02:57:44.246Z,11.00
2018-02-23T03:00:11.419Z,12.33
2018-02-23T03:02:38.365Z,18.43
2018-02-23T03:05:05.502Z,10.80
2018-02-23T03:07:32.694Z,10.53
2018-02-23T03:10:00.160Z,10.47
2018-02-23T03:12:26.562Z,11.43
2018-02-23T03:14:53.432Z,15.83
2018-02-23T03:17:20.192Z,10.63
2018-02-23T03:19:47.380Z,12.47
2018-02-23T03:22:15.015Z,9.00
2018-02-23T03:24:41.794Z,16.93
2018-02-23T03:27:08.524Z,13.27
2018-02-23T03:29:35.690Z,15.83
2018-02-23T03:32:02.496Z,11.10
2018-02-23T03:34:30.565Z,12.77
2018-02-23T03:36:57.099Z,12.37
2018-02-23T03:39:23.936Z,12.37
2018-02-23T03:41:51.087Z,16.57
2018-02-23T03:44:18.326Z,12.47
2018-02-23T03:46:45.114Z,12.33
2018-02-23T03:49:12.746Z,12.00
2018-02-23T03:51:40.011Z,13.13
2018-02-23T03:54:06.343Z,13.97
2018-02-23T03:56:33.115Z,13.70
2018-02-23T03:58:59.937Z,18.10
2018-02-23T04:01:26.707Z,14.47
2018-02-23T04:03:54.197Z,14.37
2018-02-23T04:06:20.648Z,12.17
2018-02-23T04:08:47.386Z,13.07
2018-02-23T04:11:14.957Z,8.53
2018-02-23T04:13:41.706Z,11.70
2018-02-23T04:16:08.544Z,10.83
2018-02-23T04:18:35.654Z,13.10
2018-02-23T04:21:02.844Z,12.80
2018-02-23T04:23:29.678Z,12.03
2018-02-23T04:25:56.810Z,18.60
2018-02-23T04:28:24.015Z,15.13
2018-02-23T04:30:51.845Z,13.03
2018-02-23T04:33:18.662Z,14.13
2018-02-23T04:35:46.758Z,10.90
2018-02-23T04:38:13.172Z,10.13
2018-02-23T04:40:40.313Z,15.00
2018-02-23T04:43:07.562Z,9.13
2018-02-23T04:48:31.622Z,13.50
2018-02-23T04:50:58.456Z,11.20
2018-02-23T04:53:25.186Z,14.23
2018-02-23T04:55:51.915Z,10.40
2018-02-23T04:58:25.029Z,8.00
2018-02-23T05:00:52.216Z,15.97
2018-02-23T05:03:18.644Z,17.63
2018-02-23T05:05:45.487Z,14.27
2018-02-23T05:08:12.329Z,12.67
2018-02-23T05:10:39.430Z,16.17
2018-02-23T05:13:06.170Z,12.00
2018-02-23T05:15:32.920Z,21.90
2018-02-23T05:18:00.768Z,12.07
2018-02-23T05:20:27.496Z,12.40
2018-02-23T05:22:53.897Z,15.33
2018-02-23T05:25:21.388Z,20.37
2018-02-23T05:27:48.500Z,20.17
2018-02-23T05:30:15.672Z,20.90
2018-02-23T05:32:42.867Z,22.60
2018-02-23T05:35:16.604Z,20.10
2018-02-23T05:37:43.712Z,16.17
2018-02-23T05:40:10.481Z,18.90
2018-02-23T05:42:38.700Z,17.20
2018-02-23T05:45:05.512Z,24.27
2018-02-23T05:47:32.706Z,17.73
2018-02-23T05:49:59.853Z,20.90
2018-02-23T05:52:26.579Z,19.60
2018-02-23T05:54:54.107Z,16.20
2018-02-23T05:57:21.246Z,20.07
2018-02-23T05:59:47.584Z,15.67
2018-02-23T06:02:15.398Z,20.67
2018-02-23T06:04:42.381Z,16.30
2018-02-23T06:07:09.445Z,18.27
2018-02-23T06:09:36.926Z,22.07
2018-02-23T06:12:03.393Z,14.43
2018-02-23T06:14:30.117Z,18.10
2018-02-23T06:16:56.807Z,18.80
2018-02-23T06:19:29.795Z,18.80
2018-02-23T06:21:56.471Z,15.20
2018-02-23T06:24:23.214Z,22.33
2018-02-23T06:26:51.083Z,20.20
2018-02-23T06:29:17.792Z,22.00
2018-02-23T06:31:45.050Z,21.07
2018-02-23T06:34:12.289Z,22.80
2018-02-23T06:36:39.405Z,18.63
2018-02-23T06:39:07.239Z,21.80
2018-02-23T06:41:34.503Z,20.90
2018-02-23T06:44:01.600Z,22.93
2018-02-23T06:46:28.507Z,28.67
2018-02-23T06:48:56.067Z,22.63
2018-02-23T06:51:23.267Z,24.83
2018-02-23T06:53:50.112Z,26.20
2018-02-23T06:56:18.346Z,30.03
2018-02-23T06:58:45.139Z,24.93
2018-02-23T07:01:13.226Z,23.90
2018-02-23T07:03:40.127Z,23.00
2018-02-23T07:06:07.601Z,26.63
2018-02-23T07:08:35.480Z,22.50
2018-02-23T07:11:03.103Z,30.60
2018-02-23T07:13:29.997Z,29.13
2018-02-23T07:15:58.086Z,21.23
2018-02-23T07:18:26.234Z,21.73
2018-02-23T07:20:52.663Z,29.13
2018-02-23T07:23:19.484Z,27.47
2018-02-23T07:25:46.633Z,33.13
2018-02-23T07:28:13.793Z,27.20
2018-02-23T07:30:40.557Z,27.50
2018-02-23T07:33:08.753Z,33.13
2018-02-23T07:35:36.764Z,29.37
2018-02-23T07:38:04.508Z,28.23
2018-02-23T07:40:31.383Z,25.03
2018-02-23T07:42:57.753Z,27.47
2018-02-23T07:45:25.895Z,38.00
2018-02-23T07:47:52.630Z,29.20
2018-02-23T07:50:19.751Z,32.20
2018-02-23T07:52:46.107Z,32.00
2018-02-23T07:55:13.306Z,27.27
2018-02-23T07:57:40.367Z,24.53
2018-02-23T08:00:07.862Z,31.37
2018-02-23T08:02:34.272Z,23.27
2018-02-23T08:05:01.459Z,21.77
2018-02-23T08:07:28.565Z,29.40
2018-02-23T08:09:55.299Z,22.60
2018-02-23T08:12:21.965Z,23.30
2018-02-23T08:14:48.852Z,28.63
2018-02-23T08:17:17.338Z,31.30
2018-02-23T08:19:44.124Z,29.70
2018-02-23T08:22:12.213Z,29.17
2018-02-23T08:24:38.978Z,15.87
2018-02-23T08:27:06.462Z,25.53
2018-02-23T08:29:32.832Z,24.67
2018-02-23T08:31:59.593Z,29.47
2018-02-23T08:34:26.306Z,33.00
2018-02-23T08:36:53.056Z,19.50
2018-02-23T08:39:20.516Z,22.67
2018-02-23T08:41:46.980Z,34.53
2018-02-23T08:44:14.132Z,30.63
2018-02-23T08:46:41.844Z,30.53
2018-02-23T08:49:09.972Z,25.80
2018-02-23T08:51:37.116Z,20.93
2018-02-23T08:54:04.214Z,23.77
2018-02-23T08:56:31.458Z,22.80
2018-02-23T08:58:58.629Z,24.13
2018-02-23T09:01:25.669Z,23.63
2018-02-23T09:03:53.163Z,19.93
2018-02-23T09:06:20.589Z,19.87
2018-02-23T09:08:48.012Z,21.87
2018-02-23T09:11:15.484Z,19.53
2018-02-23T09:13:42.265Z,23.70
2018-02-23T09:16:09.371Z,21.20
2018-02-23T09:18:36.295Z,26.57
2018-02-23T09:21:03.734Z,35.53
2018-02-23T09:23:30.638Z,25.73
2018-02-23T09:25:58.913Z,27.97
2018-02-23T09:28:25.955Z,20.63
2018-02-23T09:30:52.880Z,19.50
2018-02-23T09:33:20.328Z,23.80
2018-02-23T09:35:47.491Z,29.43
2018-02-23T09:38:13.911Z,31.97
2018-02-23T09:40:40.315Z,22.73
2018-02-23T09:43:07.068Z,28.37
2018-02-23T09:45:35.151Z,19.30
2018-02-23T09:48:03.199Z,17.60
2018-02-23T09:50:30.045Z,24.17
2018-02-23T09:52:56.474Z,20.20
2018-02-23T09:55:23.930Z,20.83
2018-02-23T09:57:50.456Z,17.50
2018-02-23T10:00:17.947Z,21.00
2018-02-23T10:02:44.341Z,23.37
2018-02-23T10:05:11.844Z,28.33
2018-02-23T10:07:38.234Z,23.90
2018-02-23T10:10:04.739Z,15.87
2018-02-23T10:12:31.548Z,22.50
2018-02-23T10:14:58.006Z,23.43
2018-02-23T10:17:24.798Z,22.03
2018-02-23T10:19:51.149Z,19.50
2018-02-23T10:22:18.456Z,17.70
2018-02-23T10:24:45.984Z,23.17
2018-02-23T10:27:13.087Z,19.03
2018-02-23T10:29:40.173Z,29.27
2018-02-23T10:32:07.330Z,23.60
2018-02-23T10:34:34.116Z,18.33
2018-02-23T10:37:00.650Z,25.17
2018-02-23T10:39:28.233Z,31.33
2018-02-23T10:41:54.971Z,21.53
2018-02-23T10:44:21.393Z,23.43
2018-02-23T10:46:49.787Z,22.10
2018-02-23T10:49:16.832Z,16.13
2018-02-23T10:51:43.443Z,21.70
2018-02-23T10:54:10.369Z,25.03
2018-02-23T10:56:37.369Z,19.53
2018-02-23T10:59:03.836Z,18.93
2018-02-23T11:01:31.048Z,25.50
2018-02-23T11:03:58.430Z,21.83
2018-02-23T11:06:24.951Z,21.33
2018-02-23T11:08:52.065Z,20.57
2018-02-23T11:11:20.108Z,19.70
2018-02-23T11:13:46.568Z,22.60
2018-02-23T11:16:13.063Z,15.83
2018-02-23T11:18:40.582Z,22.93
2018-02-23T11:21:07.691Z,18.67
2018-02-23T11:23:34.480Z,18.53
2018-02-23T11:26:00.936Z,16.90
2018-02-23T11:28:29.072Z,15.43
2018-02-23T11:30:55.822Z,21.70
2018-02-23T11:33:22.280Z,23.70
2018-02-23T11:35:50.593Z,19.63
2018-02-23T11:38:17.669Z,19.23
2018-02-23T11:40:45.687Z,16.50
2018-02-23T11:43:13.542Z,20.67
2018-02-23T11:45:39.859Z,20.90
2018-02-23T11:48:06.333Z,18.03
2018-02-23T11:50:32.803Z,16.67
2018-02-23T11:52:59.211Z,17.60
2018-02-23T11:55:27.423Z,18.63
2018-02-23T11:58:00.598Z,17.90
2018-02-23T12:00:28.670Z,16.93
2018-02-23T12:02:58.550Z,14.30
2018-02-23T12:05:26.660Z,16.20
2018-02-23T12:07:55.705Z,17.67
2018-02-23T12:10:22.176Z,17.10
2018-02-23T12:12:48.612Z,15.10
2018-02-23T12:15:15.370Z,20.87
2018-02-23T12:17:42.312Z,17.87
2018-02-23T12:20:10.679Z,18.40
2018-02-23T12:22:37.260Z,13.17
2018-02-23T12:25:05.408Z,12.70
2018-02-23T12:27:31.853Z,16.53
2018-02-23T12:29:59.996Z,13.33
2018-02-23T12:32:26.459Z,16.73
2018-02-23T12:34:53.280Z,14.03
2018-02-23T12:37:20.428Z,18.20
2018-02-23T12:39:47.416Z,8.77
2018-02-23T12:42:15.320Z,16.47
2018-02-23T12:44:42.190Z,11.13
2018-02-23T12:47:10.224Z,13.63
2018-02-23T12:49:37.552Z,13.63
2018-02-23T12:52:05.308Z,9.83
2018-02-23T12:54:32.208Z,14.67
2018-02-23T12:56:59.561Z,10.50
2018-02-23T12:59:27.938Z,9.40
2018-02-23T13:02:06.830Z,20.20
2018-02-23T13:04:33.367Z,14.77
2018-02-23T13:06:59.669Z,10.67
2018-02-23T13:09:26.812Z,10.93
2018-02-23T13:11:53.923Z,11.70
2018-02-23T13:14:20.671Z,12.70
2018-02-23T13:16:47.316Z,17.23
2018-02-23T13:19:13.719Z,15.70
2018-02-23T13:21:40.830Z,13.47
2018-02-23T13:24:07.228Z,11.40
2018-02-23T13:26:35.050Z,14.57
2018-02-23T13:29:02.540Z,9.13
2018-02-23T13:31:29.604Z,9.67
2018-02-23T13:33:55.934Z,11.93
2018-02-23T13:36:22.727Z,9.40
2018-02-23T13:38:50.751Z,13.03
2018-02-23T13:41:28.740Z,14.70
2018-02-23T13:43:56.922Z,10.33
2018-02-23T13:46:23.451Z,13.00
2018-02-23T13:48:49.943Z,14.60
2018-02-23T13:51:16.537Z,9.47
2018-02-23T13:53:45.302Z,13.27
2018-02-23T13:56:14.711Z,12.33
2018-02-23T13:58:41.454Z,11.80
2018-02-23T14:01:07.920Z,13.70
2018-02-23T14:03:34.316Z,13.40
2018-02-23T14:06:03.520Z,13.73
2018-02-23T14:08:30.342Z,14.03
2018-02-23T14:10:57.524Z,11.13
2018-02-23T14:13:24.429Z,12.87
2018-02-23T14:15:51.779Z,12.90
2018-02-23T14:18:18.284Z,14.23
2018-02-23T14:20:45.750Z,9.03
2018-02-23T14:23:12.514Z,11.00
2018-02-23T14:25:39.339Z,14.80
2018-02-23T14:28:06.662Z,14.07
2018-02-23T14:30:34.636Z,10.60
2018-02-23T14:33:02.050Z,10.30
2018-02-23T14:35:28.536Z,9.47
2018-02-23T14:37:55.489Z,8.70
2018-02-23T14:40:22.971Z,7.63
2018-02-23T14:42:49.384Z,9.23
2018-02-23T14:45:16.252Z,10.30
2018-02-23T14:47:43.121Z,9.77
2018-02-23T14:50:21.738Z,6.00
2018-02-23T14:52:49.397Z,7.80
2018-02-23T14:55:17.112Z,7.10
2018-02-23T14:57:43.803Z,9.20
2018-02-23T15:00:10.684Z,9.90
2018-02-23T15:02:38.192Z,17.07
2018-02-23T15:05:06.499Z,12.40
2018-02-23T15:07:33.085Z,9.20
2018-02-23T15:09:59.744Z,9.80
2018-02-23T15:12:27.086Z,14.23
2018-02-23T15:14:54.066Z,8.53
2018-02-23T15:17:20.879Z,11.13
2018-02-23T15:19:48.393Z,8.03
2018-02-23T15:22:15.441Z,4.97
2018-02-23T15:24:42.460Z,8.57
2018-02-23T15:27:10.817Z,10.87
2018-02-23T15:29:37.568Z,6.40
2018-02-23T15:32:16.166Z,10.10
2018-02-23T15:34:49.380Z,9.67
2018-02-23T15:37:17.281Z,6.93
2018-02-23T15:39:45.792Z,9.50
2018-02-23T15:42:14.857Z,11.80
2018-02-23T15:44:45.879Z,13.73
2018-02-23T15:47:14.635Z,13.27
2018-02-23T15:49:56.685Z,9.77
2018-02-23T15:52:23.271Z,8.17
2018-02-23T15:54:51.493Z,7.13
2018-02-23T15:57:19.768Z,10.97
2018-02-23T15:59:46.737Z,10.30
2018-02-23T16:02:15.995Z,9.27
2018-02-23T16:04:43.662Z,9.37
2018-02-23T16:07:10.613Z,8.93
2018-02-23T16:09:38.228Z,11.70
2018-02-23T16:12:05.043Z,8.75
2018-02-23T16:14:33.067Z,9.90
2018-02-23T16:17:01.414Z,7.03
2018-02-23T16:19:29.803Z,8.50
2018-02-23T16:21:57.942Z,9.27
2018-02-23T16:24:26.092Z,11.40
2018-02-23T16:26:53.081Z,13.73
2018-02-23T16:29:19.858Z,9.17
2018-02-23T16:31:47.411Z,11.40
2018-02-23T16:34:14.594Z,8.73
2018-02-23T16:36:42.847Z,11.73
2018-02-23T16:39:10.470Z,8.50
2018-02-23T16:41:37.098Z,6.97
2018-02-23T16:44:03.920Z,10.07
2018-02-23T16:46:32.251Z,10.70
2018-02-23T16:51:32.721Z,8.70
2018-02-23T16:53:59.101Z,11.77
2018-02-23T16:56:26.625Z,9.87
2018-02-23T16:58:53.864Z,11.20
2018-02-23T17:01:24.284Z,10.83
2018-02-23T17:03:51.610Z,9.30
2018-02-23T17:06:20.452Z,13.40
2018-02-23T17:08:54.434Z,12.93
2018-02-23T17:11:21.603Z,19.73
2018-02-23T17:13:50.074Z,12.73
2018-02-23T17:16:16.696Z,15.00
2018-02-23T17:18:46.970Z,13.03
2018-02-23T17:21:13.420Z,12.27
2018-02-23T17:23:40.220Z,13.60
2018-02-23T17:26:11.261Z,12.77
2018-02-23T17:28:38.966Z,15.30
2018-02-23T17:31:09.886Z,16.63
2018-02-23T17:33:38.067Z,14.53
2018-02-23T17:36:05.198Z,12.90
2018-02-23T17:38:32.347Z,15.90
2018-02-23T17:41:00.701Z,14.90
2018-02-23T17:43:27.085Z,13.37
2018-02-23T17:45:55.506Z,13.63
2018-02-23T17:48:22.230Z,19.10
2018-02-23T17:50:48.654Z,14.30
2018-02-23T17:53:15.800Z,10.30
2018-02-23T17:55:42.072Z,15.70
2018-02-23T17:58:08.882Z,27.70
2018-02-23T18:00:36.093Z,19.57
2018-02-23T18:03:02.599Z,14.93
2018-02-23T18:05:29.583Z,19.30
2018-02-23T18:07:56.468Z,16.70
2018-02-23T18:10:22.904Z,20.03
2018-02-23T18:12:49.246Z,12.10
2018-02-23T18:15:15.682Z,16.27
2018-02-23T18:17:42.417Z,15.23
2018-02-23T18:20:10.296Z,15.87
2018-02-23T18:22:37.467Z,13.33
2018-02-23T18:25:05.093Z,17.30
2018-02-23T18:27:31.867Z,20.17
2018-02-23T18:29:58.638Z,24.30
2018-02-23T18:32:25.782Z,16.13
2018-02-23T18:34:52.960Z,15.13
2018-02-23T18:37:21.100Z,15.70
2018-02-23T18:39:48.233Z,10.80
2018-02-23T18:42:15.610Z,23.77
2018-02-23T18:44:42.065Z,17.30
2018-02-23T18:47:09.381Z,17.27
2018-02-23T18:49:36.681Z,16.57
2018-02-23T18:52:03.393Z,20.50
2018-02-23T18:54:30.063Z,22.23
2018-02-23T18:56:59.503Z,13.43
2018-02-23T18:59:26.116Z,18.20
2018-02-23T19:01:53.904Z,13.70
2018-02-23T19:04:21.875Z,15.80
2018-02-23T19:06:48.430Z,17.87
2018-02-23T19:09:15.235Z,16.70
2018-02-23T19:11:42.800Z,18.33
2018-02-23T19:14:10.120Z,15.30
2018-02-23T19:16:37.338Z,28.00
2018-02-23T19:19:04.134Z,22.03
2018-02-23T19:21:31.574Z,18.30
2018-02-23T19:23:59.384Z,15.80
2018-02-23T19:26:26.104Z,19.43
2018-02-23T19:28:52.839Z,15.23
2018-02-23T19:31:20.295Z,15.30
2018-02-23T19:33:47.856Z,17.63
2018-02-23T19:36:14.306Z,16.10
2018-02-23T19:38:40.689Z,17.10
2018-02-23T19:41:07.446Z,19.07
2018-02-23T19:43:34.574Z,17.00
2018-02-23T19:46:02.558Z,20.53
2018-02-23T19:48:30.730Z,27.70
2018-02-23T19:50:59.419Z,24.03
2018-02-23T19:53:26.604Z,20.33
2018-02-23T19:55:53.162Z,18.60
2018-02-23T19:58:19.978Z,20.30
2018-02-23T20:00:47.121Z,15.40
2018-02-23T20:03:13.862Z,16.80
2018-02-23T20:05:40.355Z,18.47
2018-02-23T20:08:07.276Z,15.20
2018-02-23T20:10:33.828Z,19.20
2018-02-23T20:13:00.580Z,16.60
2018-02-23T20:15:26.979Z,17.83
2018-02-23T20:17:53.902Z,23.63
2018-02-23T20:20:20.402Z,15.80
2018-02-23T20:22:46.936Z,15.00
2018-02-23T20:25:13.414Z,20.80
2018-02-23T20:27:39.989Z,20.97
2018-02-23T20:30:07.091Z,12.83
2018-02-23T20:32:33.854Z,15.97
2018-02-23T20:35:00.347Z,15.87
2018-02-23T20:37:26.973Z,11.50
2018-02-23T20:39:54.168Z,9.40
2018-02-23T20:42:21.489Z,16.47
2018-02-23T20:44:48.754Z,13.57
2018-02-23T20:47:15.402Z,16.00
2018-02-23T20:49:41.883Z,12.53
2018-02-23T20:52:09.504Z,14.63
2018-02-23T20:54:36.427Z,13.10
2018-02-23T20:57:02.866Z,14.73
2018-02-23T20:59:29.350Z,17.47
2018-02-23T21:01:56.931Z,18.20
2018-02-23T21:04:25.327Z,11.80
2018-02-23T21:06:51.717Z,14.57
2018-02-23T21:09:18.240Z,18.10
2018-02-23T21:11:44.819Z,10.63
2018-02-23T21:14:11.701Z,10.20
2018-02-23T21:16:39.776Z,12.77
2018-02-23T21:19:06.179Z,15.83
2018-02-23T21:27:14.628Z,12.67
2018-02-23T21:29:41.101Z,12.47
2018-02-23T21:32:07.593Z,15.30
2018-02-23T21:34:33.984Z,17.00
2018-02-23T21:37:01.608Z,20.40
2018-02-23T21:39:29.684Z,13.50
2018-02-23T21:41:56.426Z,12.87
2018-02-23T21:44:24.966Z,12.30
2018-02-23T21:46:52.595Z,9.40
2018-02-23T21:49:19.323Z,9.37
2018-02-23T21:51:45.798Z,10.23
2018-02-23T21:54:12.333Z,11.70
2018-02-23T21:56:38.881Z,17.00
2018-02-23T21:59:05.708Z,12.00
2018-02-23T22:01:32.531Z,13.83
2018-02-23T22:03:59.744Z,11.47
2018-02-23T22:06:26.422Z,10.20
2018-02-23T22:08:52.850Z,13.23
2018-02-23T22:11:20.194Z,9.87
2018-02-23T22:13:46.647Z,10.60
2018-02-23T22:16:14.534Z,12.43
2018-02-23T22:18:42.043Z,13.70
2018-02-23T22:21:08.664Z,15.83
2018-02-23T22:23:35.073Z,20.97
2018-02-23T22:26:01.905Z,11.60
2018-02-23T22:28:28.783Z,20.30
2018-02-23T22:30:55.363Z,17.30
2018-02-23T22:33:21.788Z,16.50
2018-02-23T22:35:48.237Z,15.03
2018-02-23T22:38:14.810Z,14.37
2018-02-23T22:40:41.233Z,16.40
2018-02-23T22:43:07.609Z,16.47
2018-02-23T22:45:35.213Z,12.80
2018-02-23T22:48:02.130Z,15.03
2018-02-23T22:50:29.816Z,16.23
2018-02-23T22:52:56.226Z,13.87
2018-02-23T22:55:23.337Z,18.23
2018-02-23T22:57:50.831Z,11.87
2018-02-23T23:00:17.266Z,14.23
2018-02-23T23:02:43.708Z,17.63
2018-02-23T23:05:10.301Z,12.73
2018-02-23T23:07:37.673Z,11.67
2018-02-23T23:10:05.129Z,14.73
2018-02-23T23:12:32.282Z,16.87
2018-02-23T23:14:59.528Z,17.30
2018-02-23T23:17:26.276Z,14.80
2018-02-23T23:19:53.514Z,13.27
2018-02-23T23:22:19.885Z,15.53
2018-02-23T23:24:46.337Z,15.57
2018-02-23T23:27:12.744Z,16.30
2018-02-23T23:29:41.059Z,14.63
2018-02-23T23:32:08.303Z,13.73
2018-02-23T23:34:34.705Z,15.20
2018-02-23T23:37:01.601Z,13.87
2018-02-23T23:39:30.402Z,17.53
2018-02-23T23:41:57.101Z,11.57
2018-02-23T23:44:24.206Z,14.83
2018-02-23T23:46:50.840Z,13.53
2018-02-23T23:49:17.436Z,14.60
2018-02-23T23:51:43.962Z,14.73
2018-02-23T23:54:11.119Z,15.23
2018-02-23T23:56:38.317Z,19.57
2018-02-23T23:59:04.707Z,14.70
